createdAt,value
2022-07-28T00:01:35.025Z,100608.97
2022-07-28T00:06:28.661Z,100617.81
2022-07-28T00:11:22.037Z,100604.28
2022-07-28T00:16:15.358Z,100586.06
2022-07-28T00:21:18.327Z,100613.56
2022-07-28T00:26:12.642Z,100639.00
2022-07-28T00:31:07.221Z,100552.56
2022-07-28T00:36:07.315Z,100639.63
2022-07-28T00:41:16.607Z,100582.72
2022-07-28T00:46:14.279Z,100623.78
2022-07-28T00:51:08.662Z,100579.47
2022-07-28T00:56:02.996Z,100555.41
2022-07-28T01:01:01.699Z,100606.50
2022-07-28T01:06:06.163Z,100652.50
2022-07-28T01:11:06.175Z,100553.69
2022-07-28T01:16:04.664Z,100602.81
2022-07-28T01:21:04.928Z,100628.22
2022-07-28T01:26:15.021Z,100518.94
2022-07-28T01:31:12.878Z,100647.53
2022-07-28T01:36:11.377Z,100654.50
2022-07-28T01:41:06.702Z,100633.09
2022-07-28T01:46:01.106Z,100665.38
2022-07-28T01:50:58.889Z,100630.88
2022-07-28T01:55:54.449Z,100625.53
2022-07-28T02:00:57.123Z,100550.91
2022-07-28T02:05:54.573Z,100656.94
2022-07-28T02:11:05.200Z,100606.56
2022-07-28T02:16:07.576Z,100652.09
2022-07-28T02:21:01.854Z,100601.09
2022-07-28T02:25:58.960Z,100657.34
2022-07-28T02:30:57.140Z,100634.94
2022-07-28T02:35:54.203Z,100670.19
2022-07-28T02:40:55.075Z,100689.38
2022-07-28T02:45:54.886Z,100696.94
2022-07-28T02:50:56.492Z,100673.00
2022-07-28T02:55:53.402Z,100714.53
2022-07-28T03:01:07.691Z,100674.34
2022-07-28T03:06:02.066Z,100603.19
2022-07-28T03:11:31.017Z,100612.16
2022-07-28T03:16:28.094Z,100654.44
2022-07-28T03:21:21.733Z,100661.44
2022-07-28T03:27:04.022Z,100690.22
2022-07-28T03:32:02.827Z,100733.34
2022-07-28T03:37:02.788Z,100668.13
2022-07-28T03:41:59.462Z,100675.09
2022-07-28T03:46:52.938Z,100631.88
2022-07-28T03:51:59.746Z,100649.00
2022-07-28T03:56:53.273Z,100754.91
2022-07-28T04:01:46.828Z,100747.66
2022-07-28T04:06:42.387Z,100703.84
2022-07-28T04:11:37.271Z,100719.75
2022-07-28T04:16:33.034Z,100689.72
2022-07-28T04:21:28.297Z,100699.78
2022-07-28T04:26:23.464Z,100817.41
2022-07-28T04:31:19.437Z,100745.91
2022-07-28T04:36:12.793Z,100811.16
2022-07-28T04:41:14.163Z,100726.38
2022-07-28T04:46:09.913Z,100828.94
2022-07-28T04:51:07.978Z,100769.53
2022-07-28T04:56:09.233Z,100802.28
2022-07-28T05:01:08.886Z,100748.75
2022-07-28T05:06:06.988Z,100826.84
2022-07-28T05:11:04.772Z,100768.03
2022-07-28T05:15:59.806Z,100847.34
2022-07-28T05:20:53.228Z,100837.97
2022-07-28T05:25:46.610Z,100811.88
2022-07-28T05:30:41.260Z,100759.81
2022-07-28T05:35:53.114Z,100815.75
2022-07-28T05:40:46.531Z,100823.81
2022-07-28T05:45:44.721Z,100763.63
2022-07-28T05:50:38.959Z,100878.53
2022-07-28T05:56:19.822Z,100874.22
2022-07-28T06:01:24.963Z,100750.31
2022-07-28T06:06:18.516Z,100857.38
2022-07-28T06:11:22.540Z,100861.84
2022-07-28T06:16:30.581Z,100819.69
2022-07-28T06:21:29.443Z,100845.59
2022-07-28T06:26:43.652Z,100789.31
2022-07-28T06:31:48.468Z,100830.63
2022-07-28T06:36:48.735Z,100782.13
2022-07-28T06:41:44.887Z,100862.47
2022-07-28T06:46:41.385Z,100828.19
2022-07-28T06:51:38.318Z,100780.28
2022-07-28T06:56:32.572Z,100774.69
2022-07-28T07:01:27.893Z,100783.94
2022-07-28T07:06:24.494Z,100802.56
2022-07-28T07:11:26.981Z,100879.50
2022-07-28T07:16:23.414Z,100899.44
2022-07-28T07:21:22.932Z,100821.38
2022-07-28T07:26:36.671Z,100904.06
2022-07-28T07:31:52.797Z,100890.53
2022-07-28T07:37:00.487Z,100861.16
2022-07-28T07:42:03.329Z,100941.28
2022-07-28T07:46:59.329Z,100808.06
2022-07-28T07:52:02.814Z,100820.50
2022-07-28T07:56:57.445Z,100894.66
2022-07-28T08:01:54.925Z,100926.09
2022-07-28T08:06:48.298Z,100823.47
2022-07-28T08:11:41.563Z,100925.38
2022-07-28T08:16:36.498Z,100857.72
2022-07-28T08:21:30.254Z,100904.31
2022-07-28T08:26:25.519Z,100908.88
2022-07-28T08:31:22.166Z,100924.94
2022-07-28T08:36:22.579Z,100838.91
2022-07-28T08:41:40.829Z,100861.84
2022-07-28T08:46:47.882Z,100926.16
2022-07-28T08:51:48.858Z,100923.44
2022-07-28T08:56:57.480Z,100923.53
2022-07-28T09:01:57.485Z,100922.22
2022-07-28T09:07:00.396Z,100920.00
2022-07-28T09:12:19.501Z,100783.56
2022-07-28T09:18:02.756Z,100825.06
2022-07-28T09:23:42.314Z,100901.53
2022-07-28T09:28:24.145Z,100802.28
2022-07-28T09:33:43.221Z,100895.56
2022-07-28T09:38:45.708Z,100838.63
2022-07-28T09:43:40.819Z,100903.97
2022-07-28T09:48:34.262Z,100909.44
2022-07-28T09:53:29.001Z,100872.81
2022-07-28T09:58:26.818Z,100827.25
2022-07-28T10:03:29.242Z,100831.03
2022-07-28T10:08:43.625Z,100810.06
2022-07-28T10:13:52.198Z,100896.09
2022-07-28T10:18:45.831Z,100854.06
2022-07-28T10:23:43.602Z,100914.88
2022-07-28T10:28:42.309Z,100825.06
2022-07-28T10:33:40.460Z,100831.19
2022-07-28T10:38:39.360Z,100866.72
2022-07-28T10:43:34.367Z,100841.06
2022-07-28T10:48:29.091Z,100877.53
2022-07-28T10:53:34.989Z,100873.78
2022-07-28T11:04:52.054Z,100844.53
2022-07-28T11:10:18.946Z,100850.94
2022-07-28T11:15:27.306Z,100883.59
2022-07-28T11:20:27.589Z,100884.88
2022-07-28T11:25:24.550Z,100846.63
2022-07-28T11:30:52.350Z,100822.78
2022-07-28T11:36:00.120Z,100877.56
2022-07-28T11:41:02.863Z,100880.81
2022-07-28T11:46:34.007Z,100877.53
2022-07-28T11:51:51.143Z,100878.63
2022-07-28T11:56:58.271Z,100868.91
2022-07-28T12:01:54.448Z,100778.44
2022-07-28T12:06:53.490Z,100862.81
2022-07-28T12:11:54.347Z,100773.19
2022-07-28T12:16:53.574Z,100839.91
2022-07-28T12:21:49.569Z,100830.75
2022-07-28T12:26:47.333Z,100761.09
2022-07-28T12:32:04.037Z,100841.31
2022-07-28T12:37:03.618Z,100746.50
2022-07-28T12:42:10.111Z,100746.66
2022-07-28T12:47:10.931Z,100826.31
2022-07-28T12:52:21.994Z,100726.75
2022-07-28T12:57:24.981Z,100805.38
2022-07-28T13:02:38.774Z,100745.38
2022-07-28T13:07:40.019Z,100742.78
2022-07-28T13:12:34.953Z,100779.34
2022-07-28T13:17:53.777Z,100761.31
2022-07-28T13:22:50.669Z,100795.69
2022-07-28T13:27:44.070Z,100790.19
2022-07-28T13:32:39.664Z,100696.78
2022-07-28T13:37:37.076Z,100700.19
2022-07-28T13:42:31.549Z,100774.41
2022-07-28T13:47:35.622Z,100758.91
2022-07-28T13:52:40.057Z,100835.34
2022-07-28T13:57:36.670Z,100798.09
2022-07-28T14:02:32.707Z,100856.50
2022-07-28T14:07:26.269Z,100866.72
2022-07-28T14:12:24.957Z,100756.06
2022-07-28T14:17:45.949Z,100937.69
2022-07-28T14:22:42.330Z,100875.09
2022-07-28T14:27:37.352Z,100754.59
2022-07-28T14:32:31.419Z,100913.06
2022-07-28T14:37:27.931Z,100832.19
2022-07-28T14:42:36.557Z,100787.63
2022-07-28T15:08:10.788Z,100682.13
2022-07-28T15:13:29.457Z,100811.31
2022-07-28T15:18:32.873Z,100707.38
2022-07-28T15:23:41.027Z,100847.25
2022-07-28T15:28:47.023Z,100771.03
2022-07-28T15:34:30.774Z,100778.22
2022-07-28T15:42:05.785Z,100858.16
2022-07-28T15:46:52.562Z,100898.19
2022-07-28T15:51:48.128Z,100818.44
2022-07-28T15:56:42.351Z,100839.13
2022-07-28T16:01:45.441Z,100899.03
2022-07-28T16:07:35.584Z,100724.88
2022-07-28T16:13:09.095Z,100779.66
2022-07-28T16:18:28.037Z,100974.34
2022-07-28T16:23:24.103Z,100962.25
2022-07-28T16:28:40.855Z,100851.59
2022-07-28T16:33:48.762Z,100920.88
2022-07-28T16:39:25.773Z,100835.19
2022-07-28T16:44:24.202Z,100939.81
2022-07-28T16:49:39.782Z,100988.97
2022-07-28T16:54:47.715Z,100980.09
2022-07-28T17:00:09.395Z,100944.00
2022-07-28T17:05:14.801Z,101034.81
2022-07-28T17:10:20.513Z,100927.94
2022-07-28T17:15:25.593Z,101030.63
2022-07-28T17:20:20.974Z,101031.91
2022-07-28T17:30:34.343Z,100953.59
2022-07-28T17:35:34.994Z,101025.44
2022-07-28T17:40:30.528Z,101001.69
2022-07-28T17:45:25.171Z,101060.00
2022-07-28T17:50:22.054Z,100915.41
2022-07-28T17:55:37.900Z,101045.16
2022-07-28T18:00:56.666Z,100996.06
2022-07-28T18:05:54.420Z,101004.34
2022-07-28T18:10:50.743Z,101050.53
2022-07-28T18:15:44.501Z,101032.41
2022-07-28T18:20:40.423Z,100939.16
2022-07-28T18:25:34.556Z,100921.03
2022-07-28T18:30:29.383Z,100967.78
2022-07-28T18:35:24.207Z,101040.53
2022-07-28T18:40:21.778Z,100943.16
2022-07-28T18:45:16.479Z,100995.88
2022-07-28T18:50:29.176Z,100948.03
2022-07-28T18:55:26.186Z,100994.34
2022-07-28T19:00:22.212Z,101088.66
2022-07-28T19:05:15.890Z,100973.22
2022-07-28T19:10:10.581Z,101022.00
2022-07-28T19:15:06.623Z,101134.47
2022-07-28T19:20:09.039Z,101108.44
2022-07-28T19:25:03.240Z,101136.09
2022-07-28T19:29:56.829Z,101085.50
2022-07-28T19:34:57.274Z,101153.94
2022-07-28T19:39:50.955Z,101032.28
2022-07-28T19:44:51.000Z,101095.56
2022-07-28T19:49:47.174Z,101067.34
2022-07-28T19:54:51.310Z,101132.97
2022-07-28T19:59:45.096Z,101080.19
2022-07-28T20:04:39.071Z,101099.00
2022-07-28T20:09:35.671Z,101011.38
2022-07-28T20:14:30.588Z,101133.41
2022-07-28T20:19:26.565Z,101130.72
2022-07-28T20:24:22.555Z,100993.88
2022-07-28T20:29:26.133Z,101091.66
2022-07-28T20:34:21.260Z,101108.06
2022-07-28T20:39:42.054Z,100996.31
2022-07-28T20:44:29.625Z,101021.91
2022-07-28T20:49:25.227Z,101110.19
2022-07-28T20:54:18.957Z,101064.75
2022-07-28T20:59:16.090Z,101094.63
2022-07-28T21:04:13.394Z,101104.34
2022-07-28T21:09:08.624Z,101077.72
2022-07-28T21:14:07.071Z,101085.00
2022-07-28T21:19:00.488Z,101116.28
2022-07-28T21:23:53.892Z,101135.53
2022-07-28T21:29:05.879Z,101131.06
2022-07-28T21:33:59.389Z,101152.50
2022-07-28T21:38:57.870Z,101166.09
2022-07-28T21:43:54.225Z,101123.19
2022-07-28T21:48:48.236Z,101154.06
2022-07-28T21:53:42.285Z,101086.25
2022-07-28T21:58:35.597Z,101172.00
2022-07-28T22:03:30.313Z,101139.72
2022-07-28T22:08:24.298Z,101172.06
2022-07-28T22:13:19.057Z,101152.03
2022-07-28T22:18:16.667Z,101160.38
2022-07-28T22:23:19.952Z,101170.97
2022-07-28T22:28:29.350Z,101171.72
2022-07-28T22:33:23.536Z,101170.22
2022-07-28T22:38:18.260Z,101133.50
2022-07-28T22:43:11.683Z,101162.31
2022-07-28T22:48:05.311Z,101052.59
2022-07-28T22:52:58.557Z,101156.16
2022-07-28T22:57:53.427Z,101165.03
2022-07-28T23:02:48.033Z,101171.22
2022-07-28T23:07:53.260Z,101175.03
2022-07-28T23:12:52.267Z,101179.06
2022-07-28T23:17:45.531Z,101178.25
2022-07-28T23:22:38.876Z,101160.28
2022-07-28T23:27:32.599Z,101176.09
2022-07-28T23:32:27.532Z,101168.78
2022-07-28T23:37:21.055Z,101140.97
2022-07-28T23:42:14.856Z,101155.09
2022-07-28T23:47:08.481Z,101086.16
2022-07-28T23:52:03.376Z,101149.88
2022-07-28T23:56:57.489Z,101148.88
